Time;durP1;ratioP1;P1;durP2;ratioP2;P2;SDS_P1;SDS_P2;PMS_P1;PMS_P2;Temp;Humidity;BMP_temperature;BMP_pressure;BME280_temperature;BME280_humidity;BME280_pressure;Samples;Min_cycle;Max_cycle;Signal;HPM_P1;HPM_P2
2022/10/05 00:01:42;;;;;;;32.40;9.82;;;;;;;14.24;100.00;100718.22;4919519;29;20094;-78
2022/10/05 00:04:17;;;;;;;30.55;9.35;;;;;;;13.99;100.00;100685.81;4921164;29;20050;-78
2022/10/05 00:07:08;;;;;;;29.38;9.07;;;;;;;14.01;100.00;100672.88;4922688;29;20034;-78
2022/10/05 00:09:33;;;;;;;30.17;9.48;;;;;;;14.11;100.00;100692.13;4922634;29;20052;-78
2022/10/05 00:12:21;;;;;;;28.30;9.00;;;;;;;14.26;100.00;100691.75;4919344;29;20047;-78
2022/10/05 00:14:50;;;;;;;28.90;9.38;;;;;;;14.25;100.00;100690.09;4921232;29;20050;-78
2022/10/05 00:17:19;;;;;;;28.73;9.48;;;;;;;14.24;100.00;100702.81;4918765;29;20503;-78
2022/10/05 00:19:45;;;;;;;26.90;9.00;;;;;;;13.95;100.00;100657.56;4918967;29;20062;-78
2022/10/05 00:22:32;;;;;;;28.02;9.77;;;;;;;14.26;100.00;100708.81;4904274;29;20402;-78
2022/10/05 00:25:00;;;;;;;34.13;9.30;;;;;;;14.28;100.00;100717.53;4936184;29;20031;-78
2022/10/05 00:27:36;;;;;;;29.00;8.65;;;;;;;14.30;100.00;100717.28;4921118;29;20031;-78
2022/10/05 00:30:12;;;;;;;28.45;8.70;;;;;;;14.31;100.00;100727.09;4904574;29;20566;-78
2022/10/05 00:32:37;;;;;;;27.35;8.35;;;;;;;14.14;100.00;100697.09;4921657;29;20083;-78
2022/10/05 00:35:03;;;;;;;27.58;8.45;;;;;;;14.30;100.00;100718.16;4938382;29;20039;-79
2022/10/05 00:37:28;;;;;;;30.25;8.02;;;;;;;14.05;100.00;100664.09;4920955;29;20118;-78
2022/10/05 00:39:53;;;;;;;26.85;8.52;;;;;;;14.24;100.00;100683.03;4903492;29;20063;-78
2022/10/05 00:42:31;;;;;;;26.92;8.57;;;;;;;14.33;100.00;100693.31;4903980;29;20506;-79
2022/10/05 00:44:56;;;;;;;29.30;8.60;;;;;;;14.33;100.00;100685.19;4935832;29;20055;-79
2022/10/05 00:47:37;;;;;;;32.50;9.40;;;;;;;14.32;100.00;100686.25;4920366;29;20078;-79
2022/10/05 00:50:24;;;;;;;33.47;9.25;;;;;;;14.31;100.00;100683.78;4920151;29;20510;-79
2022/10/05 00:52:52;;;;;;;26.83;9.27;;;;;;;14.30;100.00;100691.06;4924628;29;20552;-79
2022/10/05 00:55:41;;;;;;;30.58;8.98;;;;;;;14.32;100.00;100685.44;4940566;29;20039;-79
2022/10/05 00:58:31;;;;;;;29.90;9.15;;;;;;;14.18;100.00;100646.88;4935823;29;20098;-79
2022/10/05 01:01:10;;;;;;;34.47;9.18;;;;;;;14.10;100.00;100625.50;4925853;29;20031;-79
2022/10/05 01:03:53;;;;;;;27.50;9.25;;;;;;;14.26;100.00;100659.25;4920925;29;20028;-79
2022/10/05 01:06:41;;;;;;;33.20;9.25;;;;;;;14.28;100.00;100662.56;4920402;29;20411;-78
2022/10/05 01:09:37;;;;;;;28.40;8.85;;;;;;;14.27;100.00;100656.34;4867227;29;20052;-79
2022/10/05 01:12:29;;;;;;;25.05;9.15;;;;;;;14.30;100.00;100649.63;4889963;29;20048;-79
2022/10/05 01:15:27;;;;;;;28.58;9.30;;;;;;;14.30;100.00;100660.44;4907918;29;20490;-79
2022/10/05 01:18:00;;;;;;;30.40;9.68;;;;;;;14.29;100.00;100661.50;4921370;29;20036;-79
2022/10/05 01:20:38;;;;;;;31.20;9.18;;;;;;;14.29;100.00;100664.22;4922630;29;20518;-79
2022/10/05 01:23:12;;;;;;;33.83;9.60;;;;;;;14.30;100.00;100650.47;4921256;29;20043;-78
2022/10/05 01:25:55;;;;;;;34.67;10.30;;;;;;;14.30;100.00;100645.06;4924437;29;20043;-79
2022/10/05 01:28:26;;;;;;;29.63;8.20;;;;;;;14.27;100.00;100640.09;4938492;29;20043;-79
2022/10/05 01:30:58;;;;;;;32.42;9.52;;;;;;;14.32;100.00;100658.34;4923302;29;20027;-79
2022/10/05 01:33:45;;;;;;;33.72;8.90;;;;;;;14.36;100.00;100650.59;4939703;29;20028;-79
2022/10/05 01:36:38;;;;;;;34.88;9.70;;;;;;;14.32;100.00;100642.13;4939908;29;20024;-79
2022/10/05 01:39:25;;;;;;;30.80;8.43;;;;;;;14.35;100.00;100636.25;4938586;29;20102;-78
2022/10/05 01:42:30;;;;;;;29.35;9.40;;;;;;;14.25;100.00;100614.31;4926188;29;20096;-79
2022/10/05 01:45:17;;;;;;;31.52;8.95;;;;;;;14.31;100.00;100621.53;4893112;29;20529;-78
2022/10/05 01:48:11;;;;;;;29.05;8.93;;;;;;;14.36;100.00;100623.53;4925263;29;20135;-79
2022/10/05 01:51:11;;;;;;;30.40;8.53;;;;;;;14.37;100.00;100625.19;4925703;29;20031;-79
2022/10/05 01:53:44;;;;;;;29.00;8.82;;;;;;;14.25;100.00;100617.03;4942855;29;20031;-79
2022/10/05 01:56:23;;;;;;;23.05;8.80;;;;;;;14.35;100.00;100630.84;4922213;29;20059;-80
2022/10/05 01:59:04;;;;;;;35.15;8.82;;;;;;;14.37;100.00;100631.44;4901645;29;20525;-80
2022/10/05 02:01:41;;;;;;;28.67;9.57;;;;;;;14.38;100.00;100635.78;4923122;29;20107;-79
2022/10/05 02:04:18;;;;;;;22.48;8.45;;;;;;;14.21;100.00;100602.31;4938791;29;20106;-79
2022/10/05 02:06:48;;;;;;;25.30;9.00;;;;;;;14.40;100.00;100627.44;4918877;29;20040;-79
2022/10/05 02:09:19;;;;;;;30.75;8.48;;;;;;;14.40;100.00;100633.66;4928817;29;20059;-79
2022/10/05 02:11:51;;;;;;;27.40;8.20;;;;;;;14.28;100.00;100605.75;4921920;29;20035;-80
2022/10/05 02:14:23;;;;;;;25.83;8.30;;;;;;;14.04;100.00;100564.22;4938896;29;20038;-80
2022/10/05 02:16:52;;;;;;;30.85;8.48;;;;;;;14.43;100.00;100627.81;4924485;29;20032;-80
2022/10/05 02:19:26;;;;;;;32.17;8.60;;;;;;;14.42;100.00;100619.91;4922798;29;20102;-79
2022/10/05 02:22:02;;;;;;;32.88;7.88;;;;;;;14.08;100.00;100563.53;4923497;29;20073;-79
2022/10/05 02:24:43;;;;;;;27.48;7.63;;;;;;;14.44;100.00;100624.06;4939536;29;20032;-80
2022/10/05 02:27:13;;;;;;;25.13;7.00;;;;;;;14.28;100.00;100595.75;4908894;29;20028;-79
2022/10/05 02:29:44;;;;;;;27.98;6.80;;;;;;;14.47;100.00;100618.19;4939577;29;20079;-78
2022/10/05 02:32:14;;;;;;;24.13;7.25;;;;;;;14.36;100.00;100605.41;4907512;29;20039;-79
2022/10/05 02:34:41;;;;;;;26.23;7.40;;;;;;;14.07;100.00;100552.91;4926370;29;20027;-79
2022/10/05 02:37:19;;;;;;;19.45;7.00;;;;;;;14.38;100.00;100592.50;4925747;29;20039;-80
2022/10/05 02:40:11;;;;;;;23.58;6.90;;;;;;;13.82;100.00;100496.25;4924109;29;20387;-79
2022/10/05 02:43:01;;;;;;;27.50;7.00;;;;;;;14.14;100.00;100560.94;4909771;29;20052;-79
2022/10/05 02:46:20;;;;;;;20.77;7.32;;;;;;;14.49;100.00;100613.34;4944882;29;20104;-80
2022/10/05 02:49:06;;;;;;;19.63;6.35;;;;;;;14.46;100.00;100602.97;4868356;29;20034;-80
2022/10/05 02:51:58;;;;;;;26.20;7.43;;;;;;;14.47;100.00;100598.38;4871153;29;20044;-79
2022/10/05 02:54:42;;;;;;;22.45;6.78;;;;;;;14.48;100.00;100592.75;4912105;29;20499;-80
2022/10/05 02:57:25;;;;;;;24.52;6.80;;;;;;;14.46;100.00;100591.31;4928669;29;20038;-79
2022/10/05 03:00:02;;;;;;;23.98;6.40;;;;;;;14.00;100.00;100515.13;4945280;29;20022;-79
2022/10/05 03:02:34;;;;;;;22.48;6.57;;;;;;;14.47;100.00;100580.28;4928304;29;20039;-79
2022/10/05 03:05:20;;;;;;;28.25;7.43;;;;;;;14.37;100.00;100558.34;4925301;29;20050;-79
2022/10/05 03:07:50;;;;;;;22.45;7.30;;;;;;;14.49;100.00;100575.44;4941129;29;20032;-79
2022/10/05 03:10:59;;;;;;;19.48;7.10;;;;;;;14.36;100.00;100551.28;4924177;29;20035;-80
2022/10/05 03:13:29;;;;;;;21.13;6.50;;;;;;;14.44;100.00;100567.22;4923429;29;20119;-80
2022/10/05 03:16:06;;;;;;;29.48;7.32;;;;;;;14.49;100.00;100561.91;4941403;29;20550;-79
2022/10/05 03:18:57;;;;;;;25.45;7.40;;;;;;;14.50;100.00;100552.78;4926296;29;20051;-80
2022/10/05 03:21:41;;;;;;;31.85;7.63;;;;;;;14.50;100.00;100562.72;4944446;29;20020;-79
2022/10/05 03:24:18;;;;;;;24.70;7.35;;;;;;;14.48;100.00;100562.16;4942119;29;20092;-80
2022/10/05 03:27:16;;;;;;;29.92;7.20;;;;;;;14.50;100.00;100551.91;4906823;29;20224;-79
2022/10/05 03:30:25;;;;;;;23.63;7.20;;;;;;;14.47;100.00;100552.38;4908256;29;20024;-79
2022/10/05 03:33:00;;;;;;;29.67;7.05;;;;;;;14.51;100.00;100559.84;4859417;29;20448;-79
2022/10/05 03:35:34;;;;;;;;;;;;;;;14.48;100.00;100560.28;4833488;29;20492;-80
2022/10/05 03:38:05;;;;;;;22.70;7.30;;;;;;;14.50;100.00;100563.63;4866283;29;19946;-79
2022/10/05 03:40:54;;;;;;;30.65;7.28;;;;;;;14.53;100.00;100554.19;4914275;29;20039;-79
2022/10/05 03:43:47;;;;;;;24.73;7.60;;;;;;;14.55;100.00;100565.63;4930507;29;20035;-78
2022/10/05 03:46:24;;;;;;;25.50;7.65;;;;;;;14.54;100.00;100564.78;4936460;29;20502;-79
2022/10/05 03:49:01;;;;;;;29.00;7.38;;;;;;;14.55;100.00;100558.31;4906026;29;20043;-80
2022/10/05 03:51:34;;;;;;;27.08;8.23;;;;;;;14.57;100.00;100564.34;4922939;29;20055;-79
2022/10/05 03:54:09;;;;;;;33.63;7.75;;;;;;;14.54;100.00;100545.03;4923418;29;20035;-79
2022/10/05 03:56:47;;;;;;;;;;;;;;;14.57;100.00;100544.56;4937534;29;20051;-79
2022/10/05 03:59:19;;;;;;;25.88;7.75;;;;;;;14.48;100.00;100532.38;4921253;29;19914;-79
2022/10/05 04:01:55;;;;;;;21.50;6.80;;;;;;;14.45;100.00;100532.84;4938908;29;20102;-78
2022/10/05 04:04:42;;;;;;;35.28;8.70;;;;;;;14.64;100.00;100558.00;4918776;29;20032;-78
2022/10/05 04:07:17;;;;;;;27.38;7.22;;;;;;;14.47;100.00;100515.31;4919027;29;20472;-78
2022/10/05 04:09:46;;;;;;;29.10;8.05;;;;;;;14.53;100.00;100518.97;4920142;29;20396;-78
2022/10/05 04:12:21;;;;;;;32.30;7.68;;;;;;;14.60;100.00;100521.59;4939573;29;20047;-79
2022/10/05 04:14:49;;;;;;;;;;;;;;;14.66;100.00;100528.78;4904733;29;20448;-79
2022/10/05 04:17:17;;;;;;;31.83;7.55;;;;;;;14.59;100.00;100519.94;4943042;29;19926;-79
2022/10/05 04:20:24;;;;;;;21.92;7.10;;;;;;;14.71;100.00;100520.81;4910671;29;20031;-79
2022/10/05 04:23:11;;;;;;;32.95;7.82;;;;;;;14.70;100.00;100529.97;4907019;29;20027;-79
2022/10/05 04:25:45;;;;;;;26.70;6.80;;;;;;;14.72;100.00;100523.25;4922550;29;20032;-78
2022/10/05 04:28:16;;;;;;;31.95;7.22;;;;;;;14.73;100.00;100535.72;4936225;29;20028;-78
2022/10/05 04:30:46;;;;;;;31.80;7.55;;;;;;;14.61;100.00;100509.72;4920875;29;20103;-78
2022/10/05 04:33:12;;;;;;;24.15;7.38;;;;;;;14.55;100.00;100506.88;4937113;29;20023;-78
2022/10/05 04:35:49;;;;;;;28.73;7.38;;;;;;;14.77;100.00;100534.22;4938657;29;20044;-78
2022/10/05 04:38:45;;;;;;;23.70;6.95;;;;;;;14.74;100.00;100521.16;4944016;29;20038;-79
2022/10/05 04:41:25;;;;;;;29.83;7.22;;;;;;;14.79;100.00;100518.56;4941566;29;20035;-77
2022/10/05 04:44:09;;;;;;;26.40;6.82;;;;;;;14.79;100.00;100523.16;4950921;29;20035;-77
2022/10/05 04:47:00;;;;;;;23.48;7.05;;;;;;;14.80;100.00;100509.41;4954922;29;20056;-77
2022/10/05 04:49:57;;;;;;;22.38;6.85;;;;;;;14.78;100.00;100516.09;4956248;29;20011;-78
2022/10/05 04:52:44;;;;;;;26.38;7.85;;;;;;;14.61;100.00;100478.03;4941308;29;20031;-77
2022/10/05 04:55:28;;;;;;;26.58;6.93;;;;;;;14.80;100.00;100505.84;4935024;29;20261;-78
2022/10/05 04:58:09;;;;;;;26.70;7.10;;;;;;;14.80;100.00;100511.25;4923422;29;20032;-79
2022/10/05 05:01:22;;;;;;;26.67;6.90;;;;;;;14.83;100.00;100504.53;4924607;29;20805;-78
2022/10/05 05:03:56;;;;;;;25.38;7.05;;;;;;;14.69;100.00;100487.69;4923230;29;20031;-78
2022/10/05 05:06:44;;;;;;;28.77;6.82;;;;;;;14.80;100.00;100513.97;4941743;29;20032;-78
2022/10/05 05:09:19;;;;;;;25.60;6.32;;;;;;;14.80;100.00;100503.97;4923089;29;20031;-78
2022/10/05 05:12:18;;;;;;;21.00;6.15;;;;;;;14.87;100.00;100514.69;4941808;29;20036;-78
2022/10/05 05:15:02;;;;;;;27.33;6.95;;;;;;;14.87;100.00;100512.00;4924611;29;20031;-78
2022/10/05 05:17:59;;;;;;;25.05;6.68;;;;;;;14.87;100.00;100506.56;4917604;29;20024;-79
2022/10/05 05:20:57;;;;;;;28.92;7.15;;;;;;;14.89;100.00;100506.31;4935260;29;20042;-78
2022/10/05 05:23:43;;;;;;;29.55;6.82;;;;;;;14.77;100.00;100488.19;4876889;29;20036;-78
2022/10/05 05:26:43;;;;;;;25.33;7.07;;;;;;;14.89;100.00;100501.72;4916172;29;20056;-78
2022/10/05 05:29:33;;;;;;;24.92;7.18;;;;;;;14.90;100.00;100508.81;4898714;29;20035;-77
2022/10/05 05:32:24;;;;;;;22.95;7.65;;;;;;;14.49;100.00;100426.53;4919665;29;20488;-77
2022/10/05 05:35:12;;;;;;;25.88;6.93;;;;;;;14.89;100.00;100496.31;4926116;29;20066;-77
2022/10/05 05:37:54;;;;;;;28.48;7.70;;;;;;;14.89;100.00;100490.88;4926560;29;20111;-76
2022/10/05 05:40:34;;;;;;;31.02;7.53;;;;;;;14.90;100.00;100503.41;4948173;29;20039;-77
2022/10/05 05:43:05;;;;;;;32.72;7.15;;;;;;;14.91;100.00;100498.78;4928196;29;20035;-77
2022/10/05 05:45:49;;;;;;;30.27;7.05;;;;;;;14.92;100.00;100495.00;4912304;29;20067;-77
2022/10/05 05:48:19;;;;;;;20.00;6.55;;;;;;;14.94;100.00;100496.44;4945760;29;20027;-77
2022/10/05 05:50:52;;;;;;;24.80;6.55;;;;;;;14.83;100.00;100481.00;4911144;29;20292;-77
2022/10/05 05:53:43;;;;;;;25.33;7.15;;;;;;;14.86;100.00;100494.06;4944802;29;20106;-77
2022/10/05 05:56:38;;;;;;;29.35;6.95;;;;;;;14.96;100.00;100497.00;4916923;29;20050;-76
2022/10/05 05:59:14;;;;;;;27.63;6.90;;;;;;;14.96;100.00;100494.31;4931786;29;20068;-77
2022/10/05 06:01:47;;;;;;;29.10;6.82;;;;;;;14.89;100.00;100485.47;4938745;29;20511;-76
2022/10/05 06:04:31;;;;;;;32.70;6.22;;;;;;;14.99;100.00;100491.13;4919876;29;20036;-78
2022/10/05 06:07:00;;;;;;;30.13;6.43;;;;;;;15.02;100.00;100489.84;4906955;29;20035;-78
2022/10/05 06:09:42;;;;;;;23.73;6.03;;;;;;;14.77;100.00;100446.75;4919249;29;20043;-78
2022/10/05 06:12:37;;;;;;;26.20;6.40;;;;;;;15.01;100.00;100483.59;4936354;29;20031;-78
2022/10/05 06:15:21;;;;;;;28.00;6.13;;;;;;;15.01;100.00;100491.72;4903581;29;20039;-79
2022/10/05 06:17:51;;;;;;;24.75;5.88;;;;;;;14.86;100.00;100469.69;4918691;29;20043;-79
2022/10/05 06:20:23;;;;;;;29.60;6.13;;;;;;;15.04;100.00;100485.84;4919082;29;20496;-79
2022/10/05 06:22:50;;;;;;;29.20;7.47;;;;;;;15.01;100.00;100471.94;4916774;29;20526;-79
2022/10/05 06:25:28;;;;;;;27.35;5.93;;;;;;;14.70;100.00;100424.34;4922736;29;20091;-78
2022/10/05 06:28:14;;;;;;;27.35;6.50;;;;;;;15.08;100.00;100479.94;4929662;29;20434;-79
2022/10/05 06:31:10;;;;;;;27.90;5.80;;;;;;;15.03;100.00;100469.78;4917237;29;20393;-79
2022/10/05 06:33:51;;;;;;;35.50;7.55;;;;;;;15.08;100.00;100493.50;4934628;29;20058;-79
2022/10/05 06:36:41;;;;;;;29.48;6.30;;;;;;;15.10;100.00;100491.34;4933920;29;20087;-79
2022/10/05 06:39:43;;;;;;;34.42;7.07;;;;;;;15.11;100.00;100498.44;4905767;29;20454;-79
2022/10/05 06:42:36;;;;;;;31.85;6.30;;;;;;;15.10;100.00;100485.94;4936079;29;20020;-79
2022/10/05 06:45:05;;;;;;;30.48;6.57;;;;;;;15.10;100.00;100485.94;4905281;29;20147;-79
2022/10/05 06:47:43;;;;;;;33.92;6.30;;;;;;;15.12;100.00;100479.22;4935699;29;20454;-79
2022/10/05 06:50:28;;;;;;;30.35;6.25;;;;;;;15.11;100.00;100476.75;4934525;29;20035;-79
2022/10/05 06:52:54;;;;;;;28.52;5.85;;;;;;;15.15;100.00;100477.94;4904163;29;20029;-80
2022/10/05 06:55:35;;;;;;;22.95;5.75;;;;;;;15.15;100.00;100477.94;4935581;29;20138;-79
2022/10/05 06:58:09;;;;;;;26.30;6.05;;;;;;;15.16;100.00;100485.00;4918326;29;20038;-79
2022/10/05 07:00:57;;;;;;;32.58;7.40;;;;;;;15.18;100.00;100485.59;4935297;29;20452;-79
2022/10/05 07:03:34;;;;;;;39.45;8.07;;;;;;;15.20;100.00;100487.00;4935130;29;20107;-79
2022/10/05 07:05:59;;;;;;;40.67;7.65;;;;;;;15.21;100.00;100480.50;4935570;29;20054;-78
2022/10/05 07:08:49;;;;;;;37.22;7.30;;;;;;;15.22;100.00;100484.88;4918104;29;20461;-80
2022/10/05 07:11:20;;;;;;;47.67;9.00;;;;;;;15.23;100.00;100470.28;4935119;29;20035;-80
2022/10/05 07:13:52;;;;;;;41.35;8.27;;;;;;;15.27;100.00;100473.31;4918084;29;20040;-79
2022/10/05 07:16:17;;;;;;;44.03;8.35;;;;;;;15.29;100.00;100471.19;4935143;29;20036;-78
2022/10/05 07:19:23;;;;;;;51.10;8.77;;;;;;;15.04;100.00;100438.94;4917952;29;20031;-79
2022/10/05 07:22:15;;;;;;;53.67;8.90;;;;;;;15.30;100.00;100478.28;4930190;29;20043;-79
2022/10/05 07:24:57;;;;;;;46.38;8.27;;;;;;;15.21;100.00;100471.56;4917764;29;20475;-79
2022/10/05 07:27:26;;;;;;;52.97;9.73;;;;;;;15.26;100.00;100477.94;4917887;29;20411;-80
2022/10/05 07:30:03;;;;;;;55.63;10.70;;;;;;;15.18;100.00;100472.03;4917687;29;20439;-79
2022/10/05 07:32:47;;;;;;;50.75;10.70;;;;;;;15.31;100.00;100482.63;4917172;29;20040;-79
2022/10/05 07:38:37;;;;;;;51.22;10.63;;;;;;;15.32;100.00;100469.88;4934695;29;20050;-79
2022/10/05 07:41:28;;;;;;;43.63;10.68;;;;;;;15.30;100.00;100478.28;4917502;29;20059;-79
2022/10/05 07:44:31;;;;;;;46.15;12.10;;;;;;;15.28;100.00;100496.66;4917597;29;20032;-79
2022/10/05 07:47:03;;;;;;;44.50;10.93;;;;;;;15.26;100.00;100493.34;4903296;29;20083;-79
2022/10/05 07:49:42;;;;;;;50.03;11.43;;;;;;;15.23;100.00;100491.09;4934376;29;20036;-79
2022/10/05 07:52:23;;;;;;;45.28;12.05;;;;;;;15.17;100.00;100475.81;4917362;29;20120;-79
2022/10/05 07:55:02;;;;;;;41.30;10.15;;;;;;;14.95;100.00;100435.75;4902346;29;20079;-79
2022/10/05 07:57:42;;;;;;;34.38;10.15;;;;;;;15.25;100.00;100480.84;4934378;29;20059;-80
2022/10/05 08:00:23;;;;;;;31.52;9.63;;;;;;;15.21;100.00;100487.81;4934333;29;20090;-79
2022/10/05 08:02:57;;;;;;;38.85;9.43;;;;;;;15.05;100.00;100459.56;4902123;29;20403;-80
2022/10/05 08:05:28;;;;;;;26.65;8.63;;;;;;;15.16;100.00;100477.69;4917227;29;20031;-79
2022/10/05 08:08:00;;;;;;;30.50;9.88;;;;;;;15.19;100.00;100466.34;4917053;29;20406;-79
2022/10/05 08:10:35;;;;;;;36.05;9.25;;;;;;;15.21;100.00;100468.84;4934165;29;20038;-79
2022/10/05 08:13:23;;;;;;;40.22;11.07;;;;;;;15.19;100.00;100457.41;4933996;29;20505;-79
2022/10/05 08:15:54;;;;;;;28.52;8.40;;;;;;;15.21;100.00;100461.53;4901298;29;20043;-79
2022/10/05 08:18:38;;;;;;;29.02;8.27;;;;;;;15.25;100.00;100467.31;4916914;29;20031;-79
2022/10/05 08:21:10;;;;;;;31.20;8.68;;;;;;;15.13;100.00;100447.50;4920636;29;20523;-79
2022/10/05 08:23:57;;;;;;;34.47;7.20;;;;;;;15.27;100.00;100468.72;4898772;29;20071;-79
2022/10/05 08:26:33;;;;;;;28.27;7.85;;;;;;;15.23;100.00;100459.44;4913738;29;20525;-79
2022/10/05 08:29:13;;;;;;;26.23;7.18;;;;;;;15.32;100.00;100465.28;4916755;29;20035;-79
2022/10/05 08:31:45;;;;;;;27.35;7.30;;;;;;;15.30;100.00;100458.44;4916982;29;20032;-79
2022/10/05 08:34:29;;;;;;;35.58;8.30;;;;;;;15.36;100.00;100450.19;4916859;29;20035;-79
2022/10/05 08:37:04;;;;;;;34.05;7.72;;;;;;;15.33;100.00;100450.69;4933771;29;20138;-79
2022/10/05 08:39:49;;;;;;;25.05;8.38;;;;;;;15.26;100.00;100442.69;4916424;29;20071;-79
2022/10/05 08:42:26;;;;;;;32.42;8.32;;;;;;;15.39;100.00;100441.56;4933916;29;20564;-79
2022/10/05 08:45:04;;;;;;;25.00;7.60;;;;;;;15.40;100.00;100437.81;4918673;29;20049;-79
2022/10/05 08:47:54;;;;;;;20.90;7.00;;;;;;;15.38;100.00;100433.69;4916735;29;20040;-78
2022/10/05 08:50:36;;;;;;;32.55;8.85;;;;;;;15.21;100.00;100406.50;4933781;29;20114;-79
2022/10/05 08:53:32;;;;;;;28.48;7.95;;;;;;;15.38;100.00;100429.09;4919818;29;20038;-79
2022/10/05 08:56:29;;;;;;;26.90;8.15;;;;;;;15.42;100.00;100426.72;4933656;29;20038;-79
2022/10/05 08:59:19;;;;;;;33.97;8.30;;;;;;;15.41;100.00;100423.19;4898004;29;20043;-79
2022/10/05 09:01:53;;;;;;;32.47;8.02;;;;;;;15.30;100.00;100404.22;4908474;29;20035;-79
2022/10/05 09:04:46;;;;;;;30.35;9.00;;;;;;;15.36;100.00;100428.50;4933598;29;20034;-78
2022/10/05 09:07:41;;;;;;;31.50;9.05;;;;;;;15.35;100.00;100429.56;4904075;29;20044;-79
2022/10/05 09:10:15;;;;;;;36.92;9.63;;;;;;;15.33;100.00;100426.28;4916495;29;20111;-79
2022/10/05 09:13:07;;;;;;;37.72;10.27;;;;;;;15.07;100.00;100391.59;4916698;29;20498;-78
2022/10/05 09:15:47;;;;;;;33.75;9.45;;;;;;;15.33;100.00;100437.13;4920209;29;20032;-78
2022/10/05 09:18:32;;;;;;;36.83;10.50;;;;;;;15.34;100.00;100441.47;4937234;29;20042;-78
2022/10/05 09:21:22;;;;;;;32.03;9.13;;;;;;;15.22;100.00;100437.97;4905697;29;20114;-78
2022/10/05 09:24:01;;;;;;;37.10;9.68;;;;;;;15.12;100.00;100407.94;4937318;29;20039;-78
2022/10/05 09:26:45;;;;;;;35.03;9.32;;;;;;;15.31;100.00;100425.69;4936940;29;20035;-79
2022/10/05 09:29:35;;;;;;;29.53;8.83;;;;;;;15.31;100.00;100428.41;4937286;29;20106;-79
2022/10/05 09:32:15;;;;;;;27.77;8.77;;;;;;;15.34;100.00;100419.78;4920124;29;20055;-78
2022/10/05 09:34:59;;;;;;;40.08;9.65;;;;;;;15.35;100.00;100409.78;4919913;29;20490;-78
2022/10/05 09:37:37;;;;;;;35.23;9.47;;;;;;;15.32;100.00;100415.66;4919969;29;20043;-79
2022/10/05 09:40:43;;;;;;;40.50;9.60;;;;;;;15.27;100.00;100400.13;4919889;29;20074;-78
2022/10/05 09:43:46;;;;;;;38.60;9.95;;;;;;;15.36;100.00;100420.34;4907091;29;20118;-78
2022/10/05 09:46:17;;;;;;;29.50;8.70;;;;;;;15.34;100.00;100414.38;4936940;29;20122;-79
2022/10/05 09:48:54;;;;;;;26.60;8.25;;;;;;;15.24;100.00;100378.94;4936965;29;20417;-78
2022/10/05 09:51:47;;;;;;;28.67;8.77;;;;;;;15.29;100.00;100387.16;4937106;29;20059;-78
2022/10/05 09:54:27;;;;;;;36.05;8.57;;;;;;;15.39;100.00;100402.78;4920296;29;20110;-79
2022/10/05 09:57:30;;;;;;;27.15;8.35;;;;;;;15.43;100.00;100398.53;4904765;29;20034;-78
2022/10/05 10:00:20;;;;;;;28.75;8.00;;;;;;;15.45;100.00;100408.09;4919863;29;20042;-78
2022/10/05 10:03:10;;;;;;;36.83;8.68;;;;;;;15.47;100.00;100394.28;4939226;29;20027;-78
2022/10/05 10:06:09;;;;;;;37.17;8.82;;;;;;;15.48;100.00;100396.75;4937636;29;20050;-78
2022/10/05 10:08:53;;;;;;;30.65;8.82;;;;;;;15.21;100.00;100374.00;4937203;29;20031;-78
2022/10/05 10:12:19;;;;;;;35.92;9.57;;;;;;;15.40;100.00;100399.84;4937150;29;20067;-78
2022/10/05 10:15:13;;;;;;;31.77;9.52;;;;;;;15.47;100.00;100405.97;4842991;29;20093;-78
2022/10/05 10:17:47;;;;;;;32.72;9.60;;;;;;;15.48;100.00;100406.78;4843076;29;20119;-78
2022/10/05 10:20:35;;;;;;;31.88;8.82;;;;;;;15.50;100.00;100394.63;4924725;29;20047;-78
2022/10/05 10:23:27;;;;;;;30.73;9.63;;;;;;;15.49;100.00;100392.16;4925188;29;20035;-78
2022/10/05 10:26:01;;;;;;;37.13;9.55;;;;;;;15.53;100.00;100390.63;4922163;29;20042;-77
2022/10/05 10:28:51;;;;;;;34.10;9.77;;;;;;;15.52;100.00;100397.91;4922572;29;20030;-78
2022/10/05 10:31:25;;;;;;;36.92;9.70;;;;;;;15.49;100.00;100390.25;4939477;29;20062;-77
2022/10/05 10:34:12;;;;;;;35.88;9.30;;;;;;;15.50;100.00;100389.22;4940844;29;20099;-78
2022/10/05 10:36:58;;;;;;;34.50;9.68;;;;;;;15.45;100.00;100380.97;4921580;29;20040;-78
2022/10/05 10:39:29;;;;;;;33.10;10.05;;;;;;;15.51;100.00;100395.44;4924000;29;20027;-79
2022/10/05 10:42:24;;;;;;;35.90;9.68;;;;;;;15.40;100.00;100378.16;4924179;29;20046;-77
2022/10/05 10:45:11;;;;;;;36.97;10.63;;;;;;;15.45;100.00;100389.09;4898039;29;20046;-77
2022/10/05 10:47:59;;;;;;;43.58;10.40;;;;;;;15.46;100.00;100403.47;4942394;29;20079;-78
2022/10/05 10:50:48;;;;;;;51.05;10.95;;;;;;;15.48;100.00;100395.94;4944612;29;20028;-78
2022/10/05 10:53:31;;;;;;;37.15;11.13;;;;;;;15.49;100.00;100389.44;4931766;29;20451;-77
2022/10/05 10:56:10;;;;;;;42.22;10.95;;;;;;;15.52;100.00;100391.66;4942946;29;20031;-78
2022/10/05 10:59:01;;;;;;;44.70;11.35;;;;;;;15.53;100.00;100396.06;4927871;29;20035;-78
2022/10/05 11:02:06;;;;;;;42.20;10.90;;;;;;;15.55;100.00;100395.78;4927182;29;20048;-78
2022/10/05 11:05:02;;;;;;;37.05;10.68;;;;;;;15.60;100.00;100380.44;4910205;29;20082;-78
2022/10/05 11:07:48;;;;;;;35.50;9.93;;;;;;;15.66;100.00;100390.38;4924375;29;20065;-78
2022/10/05 11:10:36;;;;;;;30.92;9.75;;;;;;;15.52;100.00;100362.66;4924345;29;20036;-78
2022/10/05 11:13:36;;;;;;;39.25;10.68;;;;;;;15.71;100.00;100389.63;4911829;29;20058;-78
2022/10/05 11:16:13;;;;;;;36.33;9.75;;;;;;;15.67;100.00;100378.44;4922875;29;20028;-78
2022/10/05 11:19:25;;;;;;;34.75;9.05;;;;;;;15.68;100.00;100380.06;4927385;29;20399;-78
2022/10/05 11:22:21;;;;;;;37.83;9.52;;;;;;;15.49;100.00;100349.59;4849673;29;20037;-78
2022/10/05 11:24:56;;;;;;;41.05;8.80;;;;;;;15.73;100.00;100372.03;4919984;29;20092;-78
2022/10/05 11:27:25;;;;;;;37.78;9.57;;;;;;;15.75;100.00;100377.22;4942125;29;20549;-77
2022/10/05 11:30:11;;;;;;;29.20;8.43;;;;;;;15.65;100.00;100352.59;4941180;29;20050;-78
2022/10/05 11:32:56;;;;;;;28.85;7.95;;;;;;;15.52;100.00;100348.28;4924706;29;20030;-78
2022/10/05 11:35:35;;;;;;;;;;;;;;;15.72;100.00;100378.50;4925138;29;20031;-78
2022/10/05 11:38:29;;;;;;;30.00;7.93;;;;;;;15.76;100.00;100372.59;4924475;29;19923;-77
2022/10/05 11:41:20;;;;;;;30.02;8.15;;;;;;;15.80;100.00;100374.59;4926735;29;20087;-78
2022/10/05 11:44:07;;;;;;;37.15;8.77;;;;;;;15.89;100.00;100377.72;4940369;29;20023;-78
2022/10/05 11:46:53;;;;;;;33.70;9.10;;;;;;;15.81;100.00;100354.53;4923362;29;20519;-77
2022/10/05 11:49:22;;;;;;;32.17;8.75;;;;;;;15.94;100.00;100372.41;4921561;29;20032;-78
2022/10/05 11:52:00;;;;;;;35.03;9.02;;;;;;;15.76;100.00;100349.03;4923300;29;20032;-78
2022/10/05 11:54:44;;;;;;;26.33;8.60;;;;;;;15.90;100.00;100363.13;4939425;29;20103;-77
2022/10/05 11:57:17;;;;;;;33.78;8.75;;;;;;;15.78;100.00;100336.03;4926024;29;20110;-78
2022/10/05 11:59:49;;;;;;;33.70;8.57;;;;;;;16.01;100.00;100347.81;4937984;29;20032;-77
2022/10/05 12:02:33;;;;;;;29.33;8.07;;;;;;;16.08;100.00;100354.72;4937345;29;20045;-78
2022/10/05 12:05:23;;;;;;;30.45;7.93;;;;;;;15.91;100.00;100318.63;4908664;29;20478;-78
2022/10/05 12:08:14;;;;;;;28.77;7.38;;;;;;;16.06;100.00;100346.03;4907397;29;20546;-78
2022/10/05 12:11:03;;;;;;;34.33;8.77;;;;;;;16.11;100.00;100350.69;4921926;29;20095;-77
2022/10/05 12:13:47;;;;;;;29.75;7.32;;;;;;;16.11;100.00;100356.13;4921576;29;20075;-77
2022/10/05 12:16:22;;;;;;;36.75;8.02;;;;;;;16.08;100.00;100346.56;4922665;29;20031;-78
2022/10/05 12:18:47;;;;;;;;;;;;;;;16.08;100.00;100352.00;4938978;29;20051;-77
2022/10/05 12:21:43;;;;;;;30.90;8.32;;;;;;;16.08;100.00;100351.19;4941011;29;19915;-78